Time;durP1;ratioP1;P1;durP2;ratioP2;P2;SDS_P1;SDS_P2;PMS_P1;PMS_P2;Temp;Humidity;BMP_temperature;BMP_pressure;BME280_temperature;BME280_humidity;BME280_pressure;Samples;Min_cycle;Max_cycle;Signal;HPM_P1;HPM_P2
2022/05/18 00:00:20;;;;;;;1.23;1.13;;;22.80;41.80;;;-147.20;100.00;58430.41;5094138;28;20044;-14
2022/05/18 00:02:47;;;;;;;0.98;0.98;;;22.80;41.90;;;-147.20;100.00;58430.41;5094884;28;20373;-14
2022/05/18 00:05:14;;;;;;;1.30;1.20;;;22.80;41.80;;;-147.20;100.00;58430.41;5094633;28;20044;-14
2022/05/18 00:07:40;;;;;;;1.35;1.10;;;22.80;41.90;;;-147.20;100.00;58430.41;5094049;28;20052;-14
2022/05/18 00:10:07;;;;;;;1.30;1.20;;;22.80;41.90;;;-147.20;100.00;58430.41;5094482;28;20071;-14
2022/05/18 00:12:33;;;;;;;1.67;1.40;;;22.80;41.80;;;-147.20;100.00;58430.41;5094181;28;20487;-14
2022/05/18 00:14:58;;;;;;;1.85;1.35;;;22.80;41.90;;;-147.20;100.00;58430.41;5094307;28;20047;-14
2022/05/18 00:17:24;;;;;;;1.33;1.23;;;22.80;41.90;;;-147.20;100.00;58430.41;5093689;28;20056;-14
2022/05/18 00:19:50;;;;;;;1.40;1.30;;;22.80;41.90;;;-147.20;100.00;58430.41;5093413;28;20052;-14
2022/05/18 00:22:16;;;;;;;1.17;1.08;;;22.80;41.90;;;-147.20;100.00;58430.41;5093591;28;20109;-14
2022/05/18 00:24:42;;;;;;;1.33;1.23;;;22.80;41.90;;;-147.20;100.00;58430.41;5094477;28;20055;-14
2022/05/18 00:27:08;;;;;;;1.85;1.17;;;22.80;41.90;;;-147.20;100.00;58430.41;5093701;28;20084;-14
2022/05/18 00:29:34;;;;;;;1.40;1.20;;;22.70;41.90;;;-147.20;100.00;58430.41;5093473;28;20101;-14
2022/05/18 00:32:00;;;;;;;1.05;1.02;;;22.80;41.90;;;-147.20;100.00;58430.41;5094168;28;20071;-14
2022/05/18 00:34:27;;;;;;;1.50;1.10;;;22.70;41.90;;;-147.20;100.00;58430.41;5093820;28;20080;-14
2022/05/18 00:36:53;;;;;;;1.40;1.30;;;22.80;41.90;;;-147.20;100.00;58430.41;5093738;28;20552;-14
2022/05/18 00:39:21;;;;;;;1.40;1.30;;;22.70;41.90;;;-147.20;100.00;58430.41;5093743;28;20399;-14
2022/05/18 00:41:47;;;;;;;1.10;1.10;;;22.70;41.90;;;-147.20;100.00;58430.41;5094021;28;20044;-14
2022/05/18 00:44:13;;;;;;;1.30;1.20;;;22.70;41.90;;;-147.20;100.00;58430.41;5093602;28;20410;-14
2022/05/18 00:46:38;;;;;;;1.33;1.23;;;22.70;41.90;;;-147.20;100.00;58430.41;5093529;28;20483;-14
2022/05/18 00:49:07;;;;;;;1.00;0.90;;;22.70;41.90;;;-147.20;100.00;58430.41;5093487;28;20048;-14
2022/05/18 00:51:44;;;;;;;1.20;1.10;;;22.70;41.90;;;-147.20;100.00;58430.41;5093587;28;20135;-14
2022/05/18 00:54:23;;;;;;;1.45;1.30;;;22.70;41.90;;;-147.20;100.00;58430.41;5075912;28;20044;-14
2022/05/18 00:57:01;;;;;;;1.55;1.30;;;22.70;41.90;;;-147.20;100.00;58430.41;5093417;28;20483;-14
2022/05/18 00:59:38;;;;;;;1.48;1.38;;;22.70;41.90;;;-147.20;100.00;58430.41;5093467;28;20070;-14
2022/05/18 01:02:06;;;;;;;1.48;1.30;;;22.70;41.90;;;-147.20;100.00;58430.41;5075334;28;20044;-14
2022/05/18 01:04:32;;;;;;;1.45;1.20;;;22.70;41.90;;;-147.20;100.00;58430.41;5075145;28;20048;-14
2022/05/18 01:07:10;;;;;;;1.27;1.10;;;22.70;41.90;;;-147.20;100.00;58430.41;5093167;28;20093;-14
2022/05/18 01:09:41;;;;;;;1.20;1.10;;;22.70;41.90;;;-147.20;100.00;58430.41;5075094;28;20135;-14
2022/05/18 01:12:10;;;;;;;1.27;1.17;;;22.70;41.90;;;-147.20;100.00;58430.41;5093520;28;20052;-14
2022/05/18 01:14:48;;;;;;;1.33;1.10;;;22.70;41.90;;;-147.20;100.00;58430.41;5093166;28;20102;-14
2022/05/18 01:17:19;;;;;;;1.50;1.40;;;22.70;41.90;;;-147.20;100.00;58430.41;5074160;28;20056;-14
2022/05/18 01:19:53;;;;;;;1.33;1.23;;;22.70;41.90;;;-147.20;100.00;58430.41;5074474;28;20067;-14
2022/05/18 01:22:59;;;;;;;1.20;1.10;;;22.70;41.90;;;-147.20;100.00;58430.41;5075292;28;20048;-14
2022/05/18 01:26:06;;;;;;;1.20;1.10;;;22.70;42.00;;;-147.20;100.00;58430.41;5092770;28;20054;-14
2022/05/18 01:28:37;;;;;;;1.35;1.25;;;22.70;42.50;;;-147.20;100.00;58430.41;5074225;28;20112;-14
2022/05/18 01:31:04;;;;;;;1.33;1.23;;;22.70;42.00;;;-147.20;100.00;58430.41;5092951;28;20422;-14
2022/05/18 01:33:32;;;;;;;1.20;1.08;;;22.70;42.00;;;-147.20;100.00;58430.41;5093072;28;20044;-14
2022/05/18 01:35:57;;;;;;;1.25;1.15;;;22.70;42.00;;;-147.20;100.00;58430.41;5092876;28;20467;-14
2022/05/18 01:38:23;;;;;;;1.23;1.13;;;22.70;42.00;;;-147.20;100.00;58430.41;5092676;28;20050;-14
2022/05/18 01:41:14;;;;;;;1.50;1.38;;;22.70;42.00;;;-147.20;100.00;58430.41;5093021;28;20127;-14
2022/05/18 01:43:59;;;;;;;1.13;1.07;;;22.70;42.00;;;-147.20;100.00;58430.41;5074739;28;20060;-14
2022/05/18 01:46:27;;;;;;;1.30;1.20;;;22.70;41.90;;;-147.20;100.00;58430.41;5074751;28;20177;-14
2022/05/18 01:48:53;;;;;;;1.10;1.10;;;22.70;41.90;;;-147.20;100.00;58430.41;5092866;28;20048;-14
2022/05/18 01:51:35;;;;;;;1.30;1.20;;;22.70;42.00;;;-147.20;100.00;58430.41;5092922;28;20123;-14
2022/05/18 01:54:01;;;;;;;1.20;1.10;;;22.70;42.00;;;-147.20;100.00;58430.41;5074795;28;20059;-14
2022/05/18 01:56:27;;;;;;;1.38;1.27;;;22.60;41.90;;;-147.20;100.00;58430.41;5092543;28;20048;-14
2022/05/18 01:58:54;;;;;;;0.90;0.90;;;22.70;42.00;;;-147.20;100.00;58430.41;5092892;28;20044;-14
2022/05/18 02:01:20;;;;;;;1.20;1.10;;;22.70;42.00;;;-147.20;100.00;58430.41;5092901;28;20551;-14
2022/05/18 02:03:47;;;;;;;1.30;1.20;;;22.70;42.00;;;-147.20;100.00;58430.41;5092379;28;20127;-14
2022/05/18 02:06:14;;;;;;;1.30;1.20;;;22.60;41.90;;;-147.20;100.00;58430.41;5092807;28;20044;-13
2022/05/18 02:08:42;;;;;;;1.63;1.52;;;22.70;42.00;;;-147.20;100.00;58430.41;5092267;28;20480;-14
2022/05/18 02:11:13;;;;;;;1.08;0.98;;;22.70;42.00;;;-147.20;100.00;58430.41;5092882;28;20044;-14
2022/05/18 02:13:40;;;;;;;1.27;1.17;;;22.70;42.00;;;-147.20;100.00;58430.41;5056281;28;20052;-14
2022/05/18 02:16:06;;;;;;;1.17;1.13;;;22.60;41.90;;;-147.20;100.00;58430.41;5092345;28;20093;-14
2022/05/18 02:18:32;;;;;;;1.20;1.10;;;22.60;41.90;;;-147.20;100.00;58430.41;5092725;28;20070;-14
2022/05/18 02:21:02;;;;;;;1.30;1.20;;;22.70;42.00;;;-147.20;100.00;58430.41;5092369;28;20044;-14
2022/05/18 02:23:28;;;;;;;1.30;1.20;;;22.60;41.90;;;-147.20;100.00;58430.41;5092867;28;20044;-14
2022/05/18 02:25:54;;;;;;;1.30;1.20;;;22.60;41.90;;;-147.20;100.00;58430.41;5092208;28;20044;-14
2022/05/18 02:28:19;;;;;;;1.00;1.00;;;22.70;42.00;;;-147.20;100.00;58430.41;5091768;28;20056;-14
2022/05/18 02:30:46;;;;;;;1.52;1.10;;;22.70;42.00;;;-147.20;100.00;58430.41;5092210;28;20071;-14
2022/05/18 02:33:11;;;;;;;1.27;1.17;;;22.60;41.90;;;-147.20;100.00;58430.41;5092154;28;20040;-14
2022/05/18 02:35:40;;;;;;;1.30;1.17;;;22.60;41.90;;;-147.20;100.00;58430.41;5092292;28;20454;-14
2022/05/18 02:38:07;;;;;;;1.35;1.25;;;22.60;41.90;;;-147.20;100.00;58430.41;5077137;28;20060;-14
2022/05/18 02:40:33;;;;;;;1.20;1.10;;;22.60;41.90;;;-147.20;100.00;58430.41;5095966;28;20048;-14
2022/05/18 02:42:59;;;;;;;1.30;1.15;;;22.60;41.90;;;-147.20;100.00;58430.41;5095402;28;20071;-14
2022/05/18 02:45:25;;;;;;;1.30;1.20;;;22.60;41.90;;;-147.20;100.00;58430.41;5095501;28;20056;-14
2022/05/18 02:47:51;;;;;;;1.20;1.10;;;22.60;41.90;;;-147.20;100.00;58430.41;5095215;28;20048;-15
2022/05/18 02:50:17;;;;;;;1.45;1.30;;;22.60;41.90;;;-147.20;100.00;58430.41;5095388;28;20052;-14
2022/05/18 02:52:44;;;;;;;1.30;1.20;;;22.60;41.90;;;-147.20;100.00;58430.41;5095396;28;20052;-14
2022/05/18 02:57:55;;;;;;;1.48;1.38;;;22.60;41.90;;;-147.20;100.00;58430.41;5095197;28;20052;-14
2022/05/18 03:00:21;;;;;;;1.30;1.20;;;22.60;41.90;;;-147.20;100.00;58430.41;5095305;28;20050;-14
2022/05/18 03:02:49;;;;;;;1.40;1.30;;;22.60;41.90;;;-147.20;100.00;58430.41;5095134;28;20040;-14
2022/05/18 03:05:15;;;;;;;1.35;1.17;;;22.60;41.90;;;-147.20;100.00;58430.41;5095074;28;20480;-14
2022/05/18 03:07:41;;;;;;;1.23;1.10;;;22.60;41.90;;;-147.20;100.00;58430.41;5095280;28;20058;-14
2022/05/18 03:10:08;;;;;;;1.20;1.10;;;22.60;42.50;;;-147.20;100.00;58430.41;5095434;28;20130;-14
2022/05/18 03:12:34;;;;;;;1.77;1.33;;;22.60;41.90;;;-147.20;100.00;58430.41;5095497;28;20084;-14
2022/05/18 03:15:00;;;;;;;1.20;1.10;;;22.60;41.90;;;-147.20;100.00;58430.41;5095593;28;20051;-14
2022/05/18 03:17:26;;;;;;;1.58;1.23;;;22.60;41.90;;;-147.20;100.00;58430.41;5094849;28;20095;-14
2022/05/18 03:19:52;;;;;;;1.15;1.10;;;22.60;41.90;;;-147.20;100.00;58430.41;5095001;28;20052;-14
2022/05/18 03:25:02;;;;;;;1.27;1.17;;;22.60;41.90;;;-147.20;100.00;58430.41;5095241;28;20476;-14
2022/05/18 03:27:29;;;;;;;1.40;1.30;;;22.60;41.90;;;-147.20;100.00;58430.41;5094482;28;20121;-14
2022/05/18 03:29:54;;;;;;;1.10;1.10;;;22.60;41.90;;;-147.20;100.00;58430.41;5095380;28;20490;-14
2022/05/18 03:32:22;;;;;;;1.40;1.30;;;22.60;41.90;;;-147.20;100.00;58430.41;5094738;28;20040;-14
2022/05/18 03:34:49;;;;;;;1.23;1.10;;;22.60;41.90;;;-147.20;100.00;58430.41;5094672;28;20519;-14
2022/05/18 03:37:17;;;;;;;1.15;1.05;;;22.60;41.90;;;-147.20;100.00;58430.41;5094506;28;20076;-14
2022/05/18 03:39:43;;;;;;;1.00;1.00;;;22.60;41.90;;;-147.20;100.00;58430.41;5094325;28;20136;-14
2022/05/18 03:42:09;;;;;;;1.30;1.20;;;22.60;41.90;;;-147.20;100.00;58430.41;5094841;28;20048;-14
2022/05/18 03:44:35;;;;;;;1.20;1.10;;;22.60;41.90;;;-147.20;100.00;58430.41;5094869;28;20040;-14
2022/05/18 03:47:00;;;;;;;1.40;1.30;;;22.60;41.90;;;-147.20;100.00;58430.41;5093937;28;20051;-14
2022/05/18 03:49:26;;;;;;;0.90;0.90;;;22.60;41.90;;;-147.20;100.00;58430.41;5094402;28;20480;-14
2022/05/18 03:51:52;;;;;;;1.20;1.10;;;22.60;41.90;;;-147.20;100.00;58430.41;5094396;28;20498;-14
2022/05/18 03:54:18;;;;;;;1.08;1.08;;;22.60;41.90;;;-147.20;100.00;58430.41;5094335;28;20048;-14
2022/05/18 03:56:43;;;;;;;0.98;0.98;;;22.60;41.90;;;-147.20;100.00;58430.41;5094649;28;20052;-13
2022/05/18 03:59:09;;;;;;;1.13;1.00;;;22.60;41.90;;;-147.20;100.00;58430.41;5094320;28;20040;-14
2022/05/18 04:01:35;;;;;;;1.50;1.30;;;22.60;41.90;;;-147.20;100.00;58430.41;5094292;28;20381;-14
2022/05/18 04:04:01;;;;;;;1.20;1.10;;;22.60;41.90;;;-147.20;100.00;58430.41;5094345;28;20051;-14
2022/05/18 04:06:26;;;;;;;1.30;1.20;;;22.60;41.90;;;-147.20;100.00;58430.41;5094136;28;20492;-14
2022/05/18 04:08:53;;;;;;;1.13;1.02;;;22.60;41.90;;;-147.20;100.00;58430.41;5094121;28;20082;-14
2022/05/18 04:11:19;;;;;;;1.00;1.00;;;22.60;41.90;;;-147.20;100.00;58430.41;5094437;28;20085;-14
2022/05/18 04:13:45;;;;;;;1.45;1.10;;;22.60;41.90;;;-147.20;100.00;58430.41;5094407;28;20048;-14
2022/05/18 04:16:10;;;;;;;1.58;1.30;;;22.60;41.90;;;-147.20;100.00;58430.41;5093929;28;20050;-14
2022/05/18 04:18:37;;;;;;;1.23;1.13;;;22.60;41.90;;;-147.20;100.00;58430.41;5094460;28;20059;-14
2022/05/18 04:21:06;;;;;;;1.17;1.08;;;22.60;41.80;;;-147.20;100.00;58430.41;5093901;28;20480;-14
2022/05/18 04:23:32;;;;;;;1.00;1.00;;;22.70;41.90;;;-147.20;100.00;58430.41;5094043;28;20055;-14
2022/05/18 04:25:57;;;;;;;1.40;1.10;;;22.60;41.80;;;-147.20;100.00;58430.41;5094468;28;20044;-14
2022/05/18 04:28:24;;;;;;;1.23;1.13;;;22.70;41.80;;;-147.20;100.00;58430.41;5093765;28;20109;-14
2022/05/18 04:30:50;;;;;;;1.05;1.02;;;22.70;41.80;;;-147.20;100.00;58430.41;5093851;28;20052;-14
2022/05/18 04:33:22;;;;;;;0.90;0.90;;;22.70;41.70;;;-147.20;100.00;58430.41;5094132;28;20039;-14
2022/05/18 04:35:49;;;;;;;1.00;0.90;;;22.70;41.70;;;-147.20;100.00;58430.41;5093903;28;20048;-14
2022/05/18 04:38:15;;;;;;;1.30;1.20;;;22.80;41.60;;;-147.20;100.00;58430.41;5093680;28;20077;-14
2022/05/18 04:40:41;;;;;;;1.20;1.10;;;22.80;41.60;;;-147.20;100.00;58430.41;5093672;28;20105;-14
2022/05/18 04:43:07;;;;;;;0.90;0.90;;;22.80;41.70;;;-147.20;100.00;58430.41;5093944;28;20048;-14
2022/05/18 04:45:33;;;;;;;1.33;1.23;;;22.90;41.50;;;-147.20;100.00;58430.41;5093887;28;20484;-14
2022/05/18 04:47:59;;;;;;;1.10;1.00;;;23.00;41.40;;;-147.20;100.00;58430.41;5093574;28;20056;-14
2022/05/18 04:50:25;;;;;;;1.10;1.00;;;23.00;41.30;;;-147.20;100.00;58430.41;5093829;28;20125;-14
2022/05/18 04:52:51;;;;;;;1.83;1.15;;;23.10;41.20;;;-147.20;100.00;58430.41;5093759;28;20042;-14
2022/05/18 04:55:17;;;;;;;1.20;1.10;;;23.10;41.10;;;-147.20;100.00;58430.41;5093436;28;20056;-14
2022/05/18 04:57:45;;;;;;;1.25;1.20;;;23.10;41.10;;;-147.20;100.00;58430.41;5093457;28;20056;-14
2022/05/18 05:00:14;;;;;;;1.23;1.20;;;23.20;41.10;;;-147.20;100.00;58430.41;5092553;28;20357;-14
2022/05/18 05:02:41;;;;;;;1.33;0.95;;;23.20;41.00;;;-147.20;100.00;58430.41;5093089;28;20048;-14
2022/05/18 05:05:10;;;;;;;1.63;0.98;;;23.30;41.00;;;-147.20;100.00;58430.41;5073479;28;20054;-14
2022/05/18 05:07:35;;;;;;;1.00;1.00;;;23.30;40.90;;;-147.20;100.00;58430.41;5093162;28;20081;-14
2022/05/18 05:10:03;;;;;;;1.38;1.27;;;23.30;40.80;;;-147.20;100.00;58430.41;5093270;28;20402;-14
2022/05/18 05:12:28;;;;;;;1.00;0.90;;;23.30;40.80;;;-147.20;100.00;58430.41;5093226;28;20047;-14
2022/05/18 05:14:54;;;;;;;1.13;1.02;;;23.30;40.80;;;-147.20;100.00;58430.41;5093410;28;20050;-14
2022/05/18 05:17:20;;;;;;;1.17;1.08;;;23.40;40.80;;;-147.20;100.00;58430.41;5093370;28;20056;-14
2022/05/18 05:19:46;;;;;;;1.20;1.10;;;23.40;40.70;;;-147.20;100.00;58430.41;5092793;28;20052;-13
2022/05/18 05:22:12;;;;;;;1.30;1.20;;;23.50;40.70;;;-147.20;100.00;58430.41;5092961;28;20054;-14
2022/05/18 05:24:37;;;;;;;1.27;1.15;;;23.50;40.70;;;-147.20;100.00;58430.41;5093267;28;20044;-14
2022/05/18 05:27:04;;;;;;;1.00;1.00;;;23.50;40.50;;;-147.20;100.00;58430.41;5092885;28;20052;-14
2022/05/18 05:29:29;;;;;;;1.00;1.00;;;23.50;40.40;;;-147.20;100.00;58430.41;5093148;28;20056;-14
2022/05/18 05:31:55;;;;;;;1.30;1.20;;;23.60;40.40;;;-147.20;100.00;58430.41;5093443;28;20052;-14
2022/05/18 05:34:21;;;;;;;0.95;0.95;;;23.70;40.40;;;-147.20;100.00;58430.41;5093166;28;20043;-14
2022/05/18 05:36:47;;;;;;;1.40;1.30;;;23.70;40.30;;;-147.20;100.00;58430.41;5092773;28;20052;-14
2022/05/18 05:39:12;;;;;;;1.30;1.20;;;23.70;40.30;;;-147.20;100.00;58430.41;5092730;28;20480;-14
2022/05/18 05:41:38;;;;;;;1.33;1.20;;;23.70;40.20;;;-147.20;100.00;58430.41;5092983;28;20496;-14
2022/05/18 05:44:04;;;;;;;1.20;1.10;;;23.80;40.30;;;-147.20;100.00;58430.41;5092784;28;20052;-14
2022/05/18 05:46:30;;;;;;;1.00;1.00;;;23.80;40.20;;;-147.20;100.00;58430.41;5093308;28;20514;-14
2022/05/18 05:48:56;;;;;;;1.02;0.93;;;23.80;40.10;;;-147.20;100.00;58430.41;5092953;28;20113;-14
2022/05/18 05:51:23;;;;;;;1.25;1.15;;;23.80;40.10;;;-147.20;100.00;58430.41;5092519;28;20044;-14
2022/05/18 05:53:51;;;;;;;0.85;0.85;;;23.90;40.00;;;-147.20;100.00;58430.41;5092567;28;20040;-14
2022/05/18 05:56:18;;;;;;;1.35;1.25;;;23.90;40.00;;;-147.20;100.00;58430.41;5074525;28;20472;-14
2022/05/18 05:58:44;;;;;;;1.30;1.20;;;23.90;40.00;;;-147.20;100.00;58430.41;5092258;28;20510;-14
2022/05/18 06:01:12;;;;;;;1.35;1.13;;;24.00;40.00;;;-147.20;100.00;58430.41;5092445;28;20130;-14
2022/05/18 06:03:40;;;;;;;1.00;1.00;;;24.00;40.00;;;-147.20;100.00;58430.41;5092222;28;20044;-14
2022/05/18 06:06:08;;;;;;;1.40;1.25;;;24.00;39.90;;;-147.20;100.00;58430.41;5074522;28;20395;-14
2022/05/18 06:08:35;;;;;;;1.30;1.15;;;23.90;39.90;;;-147.20;100.00;58430.41;5092034;28;20052;-14
2022/05/18 06:11:01;;;;;;;1.25;1.13;;;23.90;39.90;;;-147.20;100.00;58430.41;5093530;28;20044;-14
2022/05/18 06:13:28;;;;;;;2.90;1.23;;;23.90;40.50;;;-147.20;100.00;58430.41;5095554;28;20083;-14
2022/05/18 06:15:55;;;;;;;1.15;1.08;;;24.00;40.00;;;-147.20;100.00;58430.41;5095693;28;20040;-14
2022/05/18 06:18:21;;;;;;;1.15;1.05;;;24.00;40.00;;;-147.20;100.00;58430.41;5095720;28;20183;-14
2022/05/18 06:20:47;;;;;;;1.20;1.10;;;23.90;40.00;;;-147.20;100.00;58430.41;5095606;28;20047;-14
2022/05/18 06:23:15;;;;;;;0.73;0.73;;;23.90;40.00;;;-147.20;100.00;58430.41;5095657;28;20048;-14
2022/05/18 06:25:41;;;;;;;0.98;0.95;;;23.90;40.10;;;-147.20;100.00;58430.41;5095784;28;20048;-14
2022/05/18 06:28:08;;;;;;;1.17;1.00;;;23.90;40.20;;;-147.20;100.00;58430.41;5095832;28;20093;-14
2022/05/18 06:30:35;;;;;;;1.17;1.10;;;23.90;40.20;;;-147.20;100.00;58430.41;5075569;28;20477;-14
2022/05/18 06:33:01;;;;;;;1.15;1.08;;;23.80;40.20;;;-147.20;100.00;58430.41;5095574;28;20044;-14
2022/05/18 06:35:27;;;;;;;0.88;0.88;;;23.80;40.20;;;-147.20;100.00;58430.41;5095524;28;20104;-14
2022/05/18 06:37:53;;;;;;;1.02;0.93;;;23.90;40.10;;;-147.20;100.00;58430.41;5095444;28;20399;-14
2022/05/18 06:40:19;;;;;;;1.05;1.05;;;23.90;40.00;;;-147.20;100.00;58430.41;5095242;28;20071;-14
2022/05/18 06:42:46;;;;;;;1.40;1.30;;;24.00;40.00;;;-147.20;100.00;58430.41;5095379;28;20098;-14
2022/05/18 06:45:14;;;;;;;1.15;1.10;;;24.10;39.90;;;-147.20;100.00;58430.41;5095899;28;20391;-14
2022/05/18 06:47:40;;;;;;;1.25;1.15;;;24.10;39.80;;;-147.20;100.00;58430.41;5095123;28;20047;-14
2022/05/18 06:50:09;;;;;;;1.00;1.00;;;24.10;39.80;;;-147.20;100.00;58430.41;5095259;28;20052;-14
2022/05/18 06:52:35;;;;;;;1.05;1.00;;;24.10;39.90;;;-147.20;100.00;58430.41;5095176;28;20048;-14
2022/05/18 06:55:01;;;;;;;0.90;0.90;;;24.00;39.90;;;-147.20;100.00;58430.41;5095435;28;20050;-14
2022/05/18 06:57:27;;;;;;;1.27;1.17;;;24.00;39.90;;;-147.20;100.00;58430.41;5094907;28;20056;-14
2022/05/18 06:59:52;;;;;;;1.40;1.02;;;24.00;40.00;;;-147.20;100.00;58430.41;5095331;28;20048;-14
2022/05/18 07:02:18;;;;;;;1.05;1.00;;;24.00;40.00;;;-147.20;100.00;58430.41;5094868;28;20056;-14
2022/05/18 07:04:44;;;;;;;1.25;1.15;;;24.00;40.00;;;-147.20;100.00;58430.41;5094912;28;20139;-14
2022/05/18 07:07:10;;;;;;;1.27;0.93;;;24.00;40.10;;;-147.20;100.00;58430.41;5095163;28;20415;-14
2022/05/18 07:09:36;;;;;;;1.00;0.90;;;23.90;40.00;;;-147.20;100.00;58430.41;5095206;28;20051;-14
2022/05/18 07:12:02;;;;;;;1.00;1.00;;;24.00;40.10;;;-147.20;100.00;58430.41;5094938;28;20055;-14
2022/05/18 07:14:30;;;;;;;1.13;1.02;;;23.90;40.10;;;-147.20;100.00;58430.41;5072702;28;20045;-14
2022/05/18 07:16:56;;;;;;;1.20;1.10;;;23.90;40.10;;;-147.20;100.00;58430.41;5094856;28;20040;-14
2022/05/18 07:19:24;;;;;;;1.85;0.90;;;23.90;40.20;;;-147.20;100.00;58430.41;5094379;28;20102;-14
2022/05/18 07:21:50;;;;;;;1.02;1.02;;;23.80;40.20;;;-147.20;100.00;58430.41;5094151;28;20373;-14
2022/05/18 07:24:17;;;;;;;1.10;1.10;;;23.80;40.20;;;-147.20;100.00;58430.41;5094353;28;20122;-14
2022/05/18 07:26:44;;;;;;;0.93;0.90;;;23.80;40.30;;;-147.20;100.00;58430.41;5094460;28;20527;-14
2022/05/18 07:29:09;;;;;;;1.13;1.10;;;23.80;40.30;;;-147.20;100.00;58430.41;5076022;28;20041;-14
2022/05/18 07:34:24;;;;;;;1.20;1.10;;;23.70;40.40;;;-147.20;100.00;58430.41;5094566;28;20044;-14
2022/05/18 07:36:54;;;;;;;1.23;1.13;;;23.70;40.40;;;-147.20;100.00;58430.41;5094543;28;20055;-14
2022/05/18 07:39:19;;;;;;;0.70;0.70;;;23.70;40.50;;;-147.20;100.00;58430.41;5094393;28;20388;-14
2022/05/18 07:41:46;;;;;;;1.40;1.30;;;23.60;40.50;;;-147.20;100.00;58430.41;5094192;28;20051;-14
2022/05/18 07:44:13;;;;;;;1.10;1.00;;;23.60;40.50;;;-147.20;100.00;58430.41;5094083;28;20060;-14
2022/05/18 07:46:39;;;;;;;0.80;0.80;;;23.60;41.10;;;-147.20;100.00;58430.41;5093962;28;20076;-14
2022/05/18 07:49:05;;;;;;;1.00;1.00;;;23.60;40.60;;;-147.20;100.00;58430.41;5076292;28;20401;-14
2022/05/18 07:51:32;;;;;;;1.27;1.08;;;23.60;40.60;;;-147.20;100.00;58430.41;5093867;28;20071;-12
2022/05/18 07:53:58;;;;;;;1.20;1.10;;;23.60;40.60;;;-147.20;100.00;58430.41;5093665;28;20113;-13
2022/05/18 07:56:25;;;;;;;1.25;1.00;;;23.60;40.70;;;-147.20;100.00;58430.41;5093686;28;20523;-13
2022/05/18 07:58:51;;;;;;;1.30;1.20;;;23.60;40.60;;;-147.20;100.00;58430.41;5093914;28;20100;-12
2022/05/18 08:01:16;;;;;;;0.95;0.95;;;23.60;40.60;;;-147.20;100.00;58430.41;5093739;28;20073;-12
2022/05/18 08:03:42;;;;;;;0.90;0.90;;;23.60;40.70;;;-147.20;100.00;58430.41;5093740;28;20043;-14
2022/05/18 08:06:10;;;;;;;1.20;1.10;;;23.60;40.70;;;-147.20;100.00;58430.41;5093781;28;20052;-12
2022/05/18 08:08:36;;;;;;;1.08;1.08;;;23.60;40.70;;;-147.20;100.00;58430.41;5093352;28;20083;-12
2022/05/18 08:16:33;;;;;;;0.98;0.90;;;23.60;40.80;;;-147.20;100.00;58430.41;5093853;28;20040;-12
2022/05/18 08:18:59;;;;;;;1.33;1.23;;;23.60;40.70;;;-147.20;100.00;58430.41;5093327;28;20170;-12
2022/05/18 08:21:25;;;;;;;1.20;1.10;;;23.60;40.60;;;-147.20;100.00;58430.41;5093599;28;20052;-12
2022/05/18 08:23:52;;;;;;;0.98;0.98;;;23.60;40.50;;;-147.20;100.00;58430.41;5093643;28;20047;-13
2022/05/18 08:26:18;;;;;;;1.10;1.00;;;23.80;40.50;;;-147.20;100.00;58430.41;5093601;28;20398;-12
2022/05/18 08:28:44;;;;;;;1.73;0.93;;;23.80;40.30;;;-147.20;100.00;58430.41;5091874;28;20067;-12
2022/05/18 08:31:12;;;;;;;1.10;1.00;;;23.90;40.20;;;-147.20;100.00;58430.41;5093845;28;20493;-13
2022/05/18 08:33:38;;;;;;;1.10;1.00;;;23.90;40.20;;;-147.20;100.00;58430.41;5093155;28;20060;-12
2022/05/18 08:36:07;;;;;;;1.10;1.00;;;23.90;40.20;;;-147.20;100.00;58430.41;5093194;28;20128;-12
2022/05/18 08:38:35;;;;;;;1.52;1.00;;;23.90;40.10;;;-147.20;100.00;58430.41;5093311;28;20047;-12
2022/05/18 08:41:14;;;;;;;0.90;0.90;;;23.90;40.10;;;-147.20;100.00;58430.41;5093170;28;20078;-12
2022/05/18 08:43:45;;;;;;;1.10;0.93;;;23.90;40.10;;;-147.20;100.00;58430.41;5093007;28;20054;-13
2022/05/18 08:46:48;;;;;;;0.90;0.90;;;23.90;40.10;;;-147.20;100.00;58430.41;5092912;28;20429;-13
2022/05/18 08:49:39;;;;;;;0.90;0.90;;;23.90;40.20;;;-147.20;100.00;58430.41;5092802;28;20052;-12
2022/05/18 08:52:29;;;;;;;1.20;1.10;;;23.90;40.10;;;-147.20;100.00;58430.41;5093045;28;20112;-12
2022/05/18 08:55:28;;;;;;;1.13;1.02;;;23.90;40.20;;;-147.20;100.00;58430.41;5073055;28;20056;-12
2022/05/18 08:57:58;;;;;;;1.00;1.00;;;23.90;40.30;;;-147.20;100.00;58430.41;5070839;28;20408;-12
2022/05/18 09:00:36;;;;;;;1.00;1.00;;;23.90;40.20;;;-147.20;100.00;58430.41;5074725;28;20484;-12
2022/05/18 09:03:27;;;;;;;1.30;1.20;;;23.90;40.20;;;-147.20;100.00;58430.41;5072970;28;20123;-12
2022/05/18 09:06:11;;;;;;;1.00;1.00;;;23.90;40.20;;;-147.20;100.00;58430.41;5074603;28;20066;-13
2022/05/18 09:08:42;;;;;;;1.15;1.05;;;23.90;40.20;;;-147.20;100.00;58430.41;5073820;28;20086;-14
2022/05/18 09:11:22;;;;;;;0.90;0.90;;;23.90;40.30;;;-147.20;100.00;58430.41;5074438;28;20488;-13
2022/05/18 09:13:48;;;;;;;1.17;1.08;;;23.80;40.30;;;-147.20;100.00;58430.41;5073006;28;20048;-13
2022/05/18 09:16:23;;;;;;;0.80;0.80;;;23.90;40.30;;;-147.20;100.00;58430.41;5088623;28;20040;-13
2022/05/18 09:19:00;;;;;;;0.93;0.90;;;23.80;40.30;;;-147.20;100.00;58430.41;5074872;28;20055;-14
2022/05/18 09:21:46;;;;;;;1.15;1.10;;;23.80;40.30;;;-147.20;100.00;58430.41;5073957;28;20040;-14
2022/05/18 09:24:31;;;;;;;1.40;1.15;;;23.80;40.40;;;-147.20;100.00;58430.41;5074251;28;20557;-14
2022/05/18 09:27:19;;;;;;;1.23;1.13;;;23.80;40.40;;;-147.20;100.00;58430.41;5074255;28;20054;-13
2022/05/18 09:29:51;;;;;;;1.02;0.98;;;23.80;40.40;;;-147.20;100.00;58430.41;5092468;28;20040;-13
2022/05/18 09:33:08;;;;;;;1.00;0.90;;;23.80;40.50;;;-147.20;100.00;58430.41;5092396;28;20497;-13
2022/05/18 09:36:22;;;;;;;1.25;1.15;;;23.80;40.50;;;-147.20;100.00;58430.41;5092560;28;20077;-14
2022/05/18 09:39:13;;;;;;;1.08;0.98;;;23.80;40.50;;;-147.20;100.00;58430.41;5066241;28;20071;-14
2022/05/18 09:41:49;;;;;;;1.10;1.10;;;23.80;40.50;;;-147.20;100.00;58430.41;5092594;28;20047;-13
2022/05/18 09:44:26;;;;;;;1.50;1.40;;;23.80;40.50;;;-147.20;100.00;58430.41;5074476;28;20047;-13
2022/05/18 09:46:54;;;;;;;1.77;1.00;;;23.70;40.50;;;-147.20;100.00;58430.41;5073665;28;20415;-13
2022/05/18 09:49:32;;;;;;;1.27;1.17;;;23.70;40.50;;;-147.20;100.00;58430.41;5074435;28;20452;-13
2022/05/18 09:52:03;;;;;;;0.90;0.90;;;23.70;40.50;;;-147.20;100.00;58430.41;5057621;28;20045;-14
2022/05/18 09:54:30;;;;;;;;;;;23.70;40.50;;;-147.20;100.00;58430.41;5075448;28;20058;-13
2022/05/18 09:57:13;;;;;;;1.15;1.05;;;23.70;40.50;;;-147.20;100.00;58430.41;5073251;28;20320;-13
2022/05/18 09:59:46;;;;;;;0.90;0.90;;;23.70;40.50;;;-147.20;100.00;58430.41;5074156;28;20459;-13
2022/05/18 10:07:53;;;;;;;1.50;1.40;;;23.70;40.70;;;-147.20;100.00;58430.41;5076772;28;20070;-13
2022/05/18 10:10:35;;;;;;;2.38;1.05;;;23.70;40.80;;;-147.20;100.00;58430.41;5092037;28;20048;-13
2022/05/18 10:13:12;;;;;;;1.60;1.30;;;23.70;41.00;;;-147.20;100.00;58430.41;5092111;28;20099;-15
2022/05/18 10:15:48;;;;;;;2.83;1.27;;;23.80;41.20;;;-147.20;100.00;58430.41;5092171;28;20044;-14
2022/05/18 10:18:45;;;;;;;0.85;0.85;;;23.80;41.10;;;-147.20;100.00;58430.41;5074173;28;20052;-14
2022/05/18 10:21:19;;;;;;;1.50;1.40;;;23.90;41.10;;;-147.20;100.00;58430.41;5091991;28;20447;-14
2022/05/18 10:24:05;;;;;;;1.90;1.10;;;24.00;41.00;;;-147.20;100.00;58430.41;5074247;28;20112;-15
2022/05/18 10:26:38;;;;;;;1.15;1.05;;;24.10;40.80;;;-147.20;100.00;58430.41;5092285;28;20135;-14
2022/05/18 10:29:20;;;;;;;1.17;0.93;;;24.10;40.80;;;-147.20;100.00;58430.41;5091707;28;20060;-14